PWSweather.com
Personal Weather Stations
Station Observations
BSWETTER1
Bswetter.de, BraunschweigDE 38106

Bswetter.deBraunschweigDE 38106

Lat: 52.2751483, Lon: 10.5434341

Elevation: 295

Station Type: Davis Vantage II Pro Plus Aktiv

http://bswetter.de/

Latest ConditionsUpdated 9:45:08 PM GMT+01:01 Wednesday, Jun 20, 2018
Currently Today's Max Today's Min Today's Average
Temperature 74.8°F23.8°C 80.4°F26.9°C 64.9°F18.3°C 72.5°F22.5°C
Dew Point 60.0°F15.6°C 61.8°F16.6°C 58.9°F14.9°C 60.4°F15.8°C
Winds 1.1 mph WSW1.8 kmh WSW 10.4 mph -16.7 kmh - - 3.5 mph 5.6 kmh
Wind Gusts 3.5 mph5.6 kmh 18.4 mph29.6 kmh - -
Humidity 60% 86% 48% 67%
Pressure 29.98 in1015.2 mb 30.20 in1022.7 mb 29.98 in1015.2 mb -
Hour Temp Dew Point Humidity Winds Wind Gusts Pressure Precip Precip Rate Daily Precip Total
09:45 PM 74.8°F23.8°C 60.0°F15.6°C 60% 1.1 mph WSW1.8 kmh WSW 3.5 mph5.6 kmh 29.98 in1015.2 mb - 0.00 in0.0 mm 0.00 in0.0 mm
09:40 PM 74.9°F23.8°C 60.1°F15.6°C 60% 2.3 mph WSW3.7 kmh WSW 3.5 mph5.6 kmh 29.98 in1015.2 mb - 0.00 in0.0 mm 0.00 in0.0 mm
09:35 PM 75.1°F23.9°C 60.3°F15.7°C 60% 2.3 mph WSW3.7 kmh WSW 3.5 mph5.6 kmh 29.98 in1015.2 mb - 0.00 in0.0 mm 0.00 in0.0 mm
09:30 PM 75.3°F24.1°C 60.0°F15.6°C 59% 2.3 mph WSW3.7 kmh WSW 3.5 mph5.6 kmh 29.98 in1015.2 mb - 0.00 in0.0 mm 0.00 in0.0 mm
09:25 PM 75.5°F24.2°C 60.2°F15.7°C 59% 1.1 mph WSW1.8 kmh WSW 3.5 mph5.6 kmh 29.99 in1015.6 mb - 0.00 in0.0 mm 0.00 in0.0 mm
09:20 PM 75.7°F24.3°C 59.9°F15.5°C 58% 1.1 mph WSW1.8 kmh WSW 3.5 mph5.6 kmh 29.99 in1015.6 mb - 0.00 in0.0 mm 0.00 in0.0 mm
09:15 PM 75.9°F24.4°C 60.0°F15.6°C 58% 1.1 mph WSW1.8 kmh WSW 3.5 mph5.6 kmh 29.99 in1015.6 mb - 0.00 in0.0 mm 0.00 in0.0 mm
09:10 PM 76.0°F24.4°C 60.2°F15.7°C 58% 2.3 mph WSW3.7 kmh WSW 3.5 mph5.6 kmh 29.99 in1015.6 mb - 0.00 in0.0 mm 0.00 in0.0 mm
09:00 PM 76.4°F24.7°C 60.1°F15.6°C 57% 2.3 mph WSW3.7 kmh WSW 3.5 mph5.6 kmh 29.99 in1015.6 mb - 0.00 in0.0 mm 0.00 in0.0 mm
08:55 PM 76.6°F24.8°C 60.3°F15.7°C 57% 1.1 mph WSW1.8 kmh WSW 2.3 mph3.7 kmh 29.99 in1015.6 mb - 0.00 in0.0 mm 0.00 in0.0 mm
08:50 PM 76.9°F24.9°C 60.0°F15.6°C 56% 2.3 mph WSW3.7 kmh WSW 3.5 mph5.6 kmh 29.99 in1015.6 mb - 0.00 in0.0 mm 0.00 in0.0 mm
08:45 PM 77.1°F25.1°C 60.2°F15.7°C 56% 2.3 mph WSW3.7 kmh WSW 3.5 mph5.6 kmh 29.99 in1015.6 mb - 0.00 in0.0 mm 0.00 in0.0 mm
08:40 PM 77.4°F25.2°C 60.0°F15.6°C 55% 2.3 mph WSW3.7 kmh WSW 3.5 mph5.6 kmh 29.99 in1015.6 mb - 0.00 in0.0 mm 0.00 in0.0 mm
08:35 PM 77.6°F25.3°C 60.2°F15.7°C 55% 2.3 mph WSW3.7 kmh WSW 4.6 mph7.4 kmh 29.99 in1015.6 mb - 0.00 in0.0 mm 0.00 in0.0 mm
08:30 PM 77.9°F25.5°C 59.9°F15.5°C 54% 2.3 mph WSW3.7 kmh WSW 2.3 mph3.7 kmh 29.99 in1015.6 mb - 0.00 in0.0 mm 0.00 in0.0 mm
08:25 PM 78.1°F25.6°C 60.1°F15.6°C 54% 3.5 mph WSW5.6 kmh WSW 3.5 mph5.6 kmh 29.99 in1015.6 mb - 0.00 in0.0 mm 0.00 in0.0 mm
08:20 PM 78.3°F25.7°C 60.3°F15.7°C 54% 2.3 mph WSW3.7 kmh WSW 3.5 mph5.6 kmh 29.99 in1015.6 mb - 0.00 in0.0 mm 0.00 in0.0 mm
08:15 PM 78.5°F25.8°C 59.9°F15.5°C 53% 2.3 mph WSW3.7 kmh WSW 4.6 mph7.4 kmh 29.99 in1015.6 mb - 0.00 in0.0 mm 0.00 in0.0 mm
08:10 PM 78.7°F25.9°C 60.1°F15.6°C 53% 3.5 mph SW5.6 kmh SW 3.5 mph5.6 kmh 29.99 in1015.6 mb - 0.00 in0.0 mm 0.00 in0.0 mm
08:00 PM 78.8°F26.0°C 59.7°F15.4°C 52% 1.1 mph WSW1.8 kmh WSW 2.3 mph3.7 kmh 29.99 in1015.6 mb - 0.00 in0.0 mm 0.00 in0.0 mm
07:55 PM 78.9°F26.1°C 59.8°F15.4°C 52% 4.6 mph WSW7.4 kmh WSW 4.6 mph7.4 kmh 29.99 in1015.6 mb - 0.00 in0.0 mm 0.00 in0.0 mm
07:50 PM 79.1°F26.2°C 60.0°F15.6°C 52% 3.5 mph WSW5.6 kmh WSW 6.9 mph11.1 kmh 29.99 in1015.6 mb - 0.00 in0.0 mm 0.00 in0.0 mm
07:45 PM 79.3°F26.3°C 59.6°F15.3°C 51% 3.5 mph WSW5.6 kmh WSW 6.9 mph11.1 kmh 29.99 in1015.6 mb - 0.00 in0.0 mm 0.00 in0.0 mm
07:40 PM 79.4°F26.3°C 59.7°F15.4°C 51% 3.5 mph WSW5.6 kmh WSW 4.6 mph7.4 kmh 29.99 in1015.6 mb - 0.00 in0.0 mm 0.00 in0.0 mm
07:35 PM 79.6°F26.4°C 59.8°F15.4°C 51% 2.3 mph WSW3.7 kmh WSW 8.1 mph13.0 kmh 29.99 in1015.6 mb - 0.00 in0.0 mm 0.00 in0.0 mm
07:30 PM 79.7°F26.5°C 60.0°F15.6°C 51% 5.8 mph WSW9.3 kmh WSW 8.1 mph13.0 kmh 29.99 in1015.6 mb - 0.00 in0.0 mm 0.00 in0.0 mm
07:25 PM 79.7°F26.5°C 60.0°F15.6°C 51% 2.3 mph SW3.7 kmh SW 3.5 mph5.6 kmh 29.99 in1015.6 mb - 0.00 in0.0 mm 0.00 in0.0 mm
07:20 PM 79.8°F26.6°C 59.5°F15.3°C 50% 4.6 mph W7.4 kmh W 6.9 mph11.1 kmh 30.00 in1015.9 mb - 0.00 in0.0 mm 0.00 in0.0 mm
07:15 PM 79.8°F26.6°C 60.1°F15.6°C 51% 1.1 mph WSW1.8 kmh WSW 6.9 mph11.1 kmh 30.00 in1015.9 mb - 0.00 in0.0 mm 0.00 in0.0 mm
07:10 PM 79.7°F26.5°C 59.4°F15.2°C 50% 3.5 mph WSW5.6 kmh WSW 4.6 mph7.4 kmh 30.00 in1015.9 mb - 0.00 in0.0 mm 0.00 in0.0 mm
07:00 PM 79.8°F26.6°C 60.0°F15.6°C 51% 2.3 mph SW3.7 kmh SW 9.2 mph14.8 kmh 30.00 in1015.9 mb - 0.00 in0.0 mm 0.00 in0.0 mm
06:55 PM 79.7°F26.5°C 59.5°F15.3°C 50% 3.5 mph SW5.6 kmh SW 4.6 mph7.4 kmh 30.00 in1015.9 mb - 0.00 in0.0 mm 0.00 in0.0 mm
06:50 PM 79.9°F26.6°C 59.6°F15.3°C 50% 4.6 mph SW7.4 kmh SW 5.8 mph9.3 kmh 30.00 in1015.9 mb - 0.00 in0.0 mm 0.00 in0.0 mm
06:45 PM 80.0°F26.7°C 59.2°F15.1°C 49% 5.8 mph WSW9.3 kmh WSW 11.5 mph18.5 kmh 30.00 in1015.9 mb - 0.00 in0.0 mm 0.00 in0.0 mm
06:40 PM 80.2°F26.8°C 59.3°F15.2°C 49% 4.6 mph NW7.4 kmh NW 6.9 mph11.1 kmh 30.00 in1015.9 mb - 0.00 in0.0 mm 0.00 in0.0 mm
06:35 PM 80.2°F26.8°C 59.4°F15.2°C 49% 5.8 mph WSW9.3 kmh WSW 11.5 mph18.5 kmh 30.01 in1016.3 mb - 0.00 in0.0 mm 0.00 in0.0 mm
06:30 PM 80.3°F26.8°C 59.4°F15.2°C 49% 4.6 mph WNW7.4 kmh WNW 4.6 mph7.4 kmh 30.01 in1016.3 mb - 0.00 in0.0 mm 0.00 in0.0 mm
06:25 PM 80.3°F26.8°C 59.4°F15.2°C 49% 5.8 mph WSW9.3 kmh WSW 11.5 mph18.5 kmh 30.01 in1016.3 mb - 0.00 in0.0 mm 0.00 in0.0 mm
06:20 PM 80.4°F26.9°C 58.9°F14.9°C 48% 6.9 mph WSW11.1 kmh WSW 10.4 mph16.7 kmh 30.01 in1016.3 mb - 0.00 in0.0 mm 0.00 in0.0 mm
06:15 PM 80.3°F26.8°C 59.4°F15.2°C 49% 4.6 mph WSW7.4 kmh WSW 9.2 mph14.8 kmh 30.01 in1016.3 mb - 0.00 in0.0 mm 0.00 in0.0 mm
06:10 PM 80.2°F26.8°C 59.3°F15.2°C 49% 4.6 mph WSW7.4 kmh WSW 6.9 mph11.1 kmh 30.01 in1016.3 mb - 0.00 in0.0 mm 0.00 in0.0 mm
06:00 PM 80.1°F26.7°C 59.2°F15.1°C 49% 4.6 mph W7.4 kmh W 5.8 mph9.3 kmh 30.02 in1016.6 mb - 0.00 in0.0 mm 0.00 in0.0 mm
05:55 PM 80.1°F26.7°C 59.2°F15.1°C 49% 6.9 mph WSW11.1 kmh WSW 10.4 mph16.7 kmh 30.02 in1016.6 mb - 0.00 in0.0 mm 0.00 in0.0 mm
05:50 PM 79.8°F26.6°C 58.9°F14.9°C 49% 6.9 mph S11.1 kmh S 9.2 mph14.8 kmh 30.02 in1016.6 mb - 0.00 in0.0 mm 0.00 in0.0 mm
05:45 PM 80.0°F26.7°C 59.1°F15.1°C 49% 6.9 mph W11.1 kmh W 12.7 mph20.4 kmh 30.02 in1016.6 mb - 0.00 in0.0 mm 0.00 in0.0 mm
05:40 PM 80.0°F26.7°C 59.1°F15.1°C 49% 6.9 mph WSW11.1 kmh WSW 12.7 mph20.4 kmh 30.02 in1016.6 mb - 0.00 in0.0 mm 0.00 in0.0 mm
05:35 PM 79.8°F26.6°C 59.5°F15.3°C 50% 5.8 mph SW9.3 kmh SW 9.2 mph14.8 kmh 30.02 in1016.6 mb - 0.00 in0.0 mm 0.00 in0.0 mm
05:30 PM 79.9°F26.6°C 59.0°F15.0°C 49% 6.9 mph W11.1 kmh W 11.5 mph18.5 kmh 30.02 in1016.6 mb - 0.00 in0.0 mm 0.00 in0.0 mm
05:25 PM 80.0°F26.7°C 59.1°F15.1°C 49% 5.8 mph WSW9.3 kmh WSW 11.5 mph18.5 kmh 30.02 in1016.6 mb - 0.00 in0.0 mm 0.00 in0.0 mm
05:20 PM 79.8°F26.6°C 59.5°F15.3°C 50% 4.6 mph NW7.4 kmh NW 12.7 mph20.4 kmh 30.03 in1016.9 mb - 0.00 in0.0 mm 0.00 in0.0 mm
05:15 PM 79.7°F26.5°C 59.4°F15.2°C 50% 3.5 mph W5.6 kmh W 11.5 mph18.5 kmh 30.03 in1016.9 mb - 0.00 in0.0 mm 0.00 in0.0 mm
05:10 PM 80.0°F26.7°C 59.7°F15.4°C 50% 6.9 mph W11.1 kmh W 11.5 mph18.5 kmh 30.03 in1016.9 mb - 0.00 in0.0 mm 0.00 in0.0 mm
05:00 PM 79.9°F26.6°C 60.2°F15.7°C 51% 4.6 mph SW7.4 kmh SW 9.2 mph14.8 kmh 30.04 in1017.3 mb - 0.00 in0.0 mm 0.00 in0.0 mm
04:55 PM 79.8°F26.6°C 60.1°F15.6°C 51% 6.9 mph SW11.1 kmh SW 6.9 mph11.1 kmh 30.04 in1017.3 mb - 0.00 in0.0 mm 0.00 in0.0 mm
04:50 PM 79.8°F26.6°C 60.1°F15.6°C 51% 8.1 mph WNW13.0 kmh WNW 10.4 mph16.7 kmh 30.04 in1017.3 mb - 0.00 in0.0 mm 0.00 in0.0 mm
04:45 PM 79.7°F26.5°C 60.0°F15.6°C 51% 8.1 mph WSW13.0 kmh WSW 9.2 mph14.8 kmh 30.04 in1017.3 mb - 0.00 in0.0 mm 0.00 in0.0 mm
04:40 PM 79.6°F26.4°C 59.9°F15.5°C 51% 6.9 mph W11.1 kmh W 10.4 mph16.7 kmh 30.04 in1017.3 mb - 0.00 in0.0 mm 0.00 in0.0 mm
04:35 PM 79.4°F26.3°C 60.2°F15.7°C 52% 8.1 mph WSW13.0 kmh WSW 11.5 mph18.5 kmh 30.05 in1017.6 mb - 0.00 in0.0 mm 0.00 in0.0 mm
04:30 PM 79.4°F26.3°C 60.2°F15.7°C 52% 5.8 mph W9.3 kmh W 9.2 mph14.8 kmh 30.05 in1017.6 mb - 0.00 in0.0 mm 0.00 in0.0 mm
04:25 PM 79.5°F26.4°C 59.8°F15.4°C 51% 9.2 mph W14.8 kmh W 11.5 mph18.5 kmh 30.05 in1017.6 mb - 0.00 in0.0 mm 0.00 in0.0 mm
04:20 PM 79.7°F26.5°C 60.0°F15.6°C 51% 6.9 mph NW11.1 kmh NW 9.2 mph14.8 kmh 30.05 in1017.6 mb - 0.00 in0.0 mm 0.00 in0.0 mm
04:15 PM 79.6°F26.4°C 60.4°F15.8°C 52% 4.6 mph WSW7.4 kmh WSW 6.9 mph11.1 kmh 30.05 in1017.6 mb - 0.00 in0.0 mm 0.00 in0.0 mm
04:10 PM 79.4°F26.3°C 60.8°F16.0°C 53% 9.2 mph SW14.8 kmh SW 11.5 mph18.5 kmh 30.05 in1017.6 mb - 0.00 in0.0 mm 0.00 in0.0 mm
04:00 PM 79.3°F26.3°C 60.1°F15.6°C 52% 8.1 mph W13.0 kmh W 12.7 mph20.4 kmh 30.06 in1017.9 mb - 0.00 in0.0 mm 0.00 in0.0 mm
03:55 PM 79.2°F26.2°C 60.6°F15.9°C 53% 6.9 mph WSW11.1 kmh WSW 11.5 mph18.5 kmh 30.06 in1017.9 mb - 0.00 in0.0 mm 0.00 in0.0 mm
03:50 PM 79.4°F26.3°C 60.2°F15.7°C 52% 8.1 mph WNW13.0 kmh WNW 10.4 mph16.7 kmh 30.06 in1017.9 mb - 0.00 in0.0 mm 0.00 in0.0 mm
03:45 PM 79.2°F26.2°C 61.1°F16.2°C 54% 2.3 mph WSW3.7 kmh WSW 10.4 mph16.7 kmh 30.06 in1017.9 mb - 0.00 in0.0 mm 0.00 in0.0 mm
03:40 PM 79.0°F26.1°C 60.4°F15.8°C 53% 9.2 mph NW14.8 kmh NW 11.5 mph18.5 kmh 30.06 in1017.9 mb - 0.00 in0.0 mm 0.00 in0.0 mm
03:31 PM 78.8°F26.0°C 61.3°F16.3°C 55% 1.1 mph SW1.8 kmh SW 3.5 mph5.6 kmh 30.07 in1018.3 mb - 0.00 in0.0 mm 0.00 in0.0 mm
03:25 PM 78.3°F25.7°C 60.8°F16.0°C 55% 3.5 mph WSW5.6 kmh WSW 4.6 mph7.4 kmh 30.07 in1018.3 mb - 0.00 in0.0 mm 0.00 in0.0 mm
03:20 PM 78.3°F25.7°C 60.8°F16.0°C 55% 5.8 mph WSW9.3 kmh WSW 8.1 mph13.0 kmh 30.07 in1018.3 mb - 0.00 in0.0 mm 0.00 in0.0 mm
03:15 PM 78.8°F26.0°C 60.7°F15.9°C 54% 8.1 mph WNW13.0 kmh WNW 11.5 mph18.5 kmh 30.07 in1018.3 mb - 0.00 in0.0 mm 0.00 in0.0 mm
03:10 PM 79.0°F26.1°C 60.9°F16.1°C 54% 6.9 mph W11.1 kmh W 15.0 mph24.1 kmh 30.07 in1018.3 mb - 0.00 in0.0 mm 0.00 in0.0 mm
03:00 PM 78.9°F26.1°C 61.3°F16.3°C 55% 2.3 mph W3.7 kmh W 4.6 mph7.4 kmh 30.07 in1018.3 mb - 0.00 in0.0 mm 0.00 in0.0 mm
02:55 PM 78.5°F25.8°C 61.0°F16.1°C 55% 8.1 mph WSW13.0 kmh WSW 12.7 mph20.4 kmh 30.08 in1018.6 mb - 0.00 in0.0 mm 0.00 in0.0 mm
02:50 PM 77.9°F25.5°C 60.9°F16.1°C 56% 3.5 mph SW5.6 kmh SW 6.9 mph11.1 kmh 30.08 in1018.6 mb - 0.00 in0.0 mm 0.00 in0.0 mm
02:45 PM 77.8°F25.4°C 60.3°F15.7°C 55% 6.9 mph W11.1 kmh W 8.1 mph13.0 kmh 30.08 in1018.6 mb - 0.00 in0.0 mm 0.00 in0.0 mm
02:40 PM 77.6°F25.3°C 60.7°F15.9°C 56% 6.9 mph WSW11.1 kmh WSW 6.9 mph11.1 kmh 30.08 in1018.6 mb - 0.00 in0.0 mm 0.00 in0.0 mm
02:35 PM 77.3°F25.2°C 60.4°F15.8°C 56% 8.1 mph WSW13.0 kmh WSW 12.7 mph20.4 kmh 30.08 in1018.6 mb - 0.00 in0.0 mm 0.00 in0.0 mm
02:30 PM 77.5°F25.3°C 60.6°F15.9°C 56% 4.6 mph NW7.4 kmh NW 8.1 mph13.0 kmh 30.08 in1018.6 mb - 0.00 in0.0 mm 0.00 in0.0 mm
02:25 PM 77.9°F25.5°C 60.4°F15.8°C 55% 8.1 mph WSW13.0 kmh WSW 9.2 mph14.8 kmh 30.08 in1018.6 mb - 0.00 in0.0 mm 0.00 in0.0 mm
02:20 PM 78.3°F25.7°C 60.2°F15.7°C 54% 10.4 mph WNW16.7 kmh WNW 11.5 mph18.5 kmh 30.08 in1018.6 mb - 0.00 in0.0 mm 0.00 in0.0 mm
02:15 PM 78.4°F25.8°C 60.8°F16.0°C 55% 6.9 mph WSW11.1 kmh WSW 13.8 mph22.2 kmh 30.09 in1019.0 mb - 0.00 in0.0 mm 0.00 in0.0 mm
02:10 PM 77.9°F25.5°C 60.9°F16.1°C 56% 4.6 mph WSW7.4 kmh WSW 10.4 mph16.7 kmh 30.09 in1019.0 mb - 0.00 in0.0 mm 0.00 in0.0 mm
02:00 PM 77.6°F25.3°C 60.7°F15.9°C 56% 8.1 mph WNW13.0 kmh WNW 10.4 mph16.7 kmh 30.09 in1019.0 mb - 0.00 in0.0 mm 0.00 in0.0 mm
01:55 PM 77.2°F25.1°C 61.3°F16.3°C 58% 3.5 mph WNW5.6 kmh WNW 3.5 mph5.6 kmh 30.09 in1019.0 mb - 0.00 in0.0 mm 0.00 in0.0 mm
01:50 PM 77.4°F25.2°C 61.0°F16.1°C 57% 5.8 mph WSW9.3 kmh WSW 9.2 mph14.8 kmh 30.09 in1019.0 mb - 0.00 in0.0 mm 0.00 in0.0 mm
01:45 PM 77.9°F25.5°C 61.0°F16.1°C 56% 8.1 mph WSW13.0 kmh WSW 12.7 mph20.4 kmh 30.10 in1019.3 mb - 0.00 in0.0 mm 0.00 in0.0 mm
01:40 PM 78.1°F25.6°C 61.1°F16.2°C 56% 5.8 mph SSW9.3 kmh SSW 9.2 mph14.8 kmh 30.10 in1019.3 mb - 0.00 in0.0 mm 0.00 in0.0 mm
01:35 PM 77.4°F25.2°C 61.0°F16.1°C 57% 2.3 mph S3.7 kmh S 9.2 mph14.8 kmh 30.10 in1019.3 mb - 0.00 in0.0 mm 0.00 in0.0 mm
01:30 PM 76.6°F24.8°C 60.7°F15.9°C 58% 6.9 mph SW11.1 kmh SW 9.2 mph14.8 kmh 30.10 in1019.3 mb - 0.00 in0.0 mm 0.00 in0.0 mm
01:25 PM 76.1°F24.5°C 60.3°F15.7°C 58% 6.9 mph SW11.1 kmh SW 10.4 mph16.7 kmh 30.10 in1019.3 mb - 0.00 in0.0 mm 0.00 in0.0 mm
01:20 PM 75.7°F24.3°C 60.8°F16.0°C 60% 4.6 mph WSW7.4 kmh WSW 6.9 mph11.1 kmh 30.10 in1019.3 mb - 0.00 in0.0 mm 0.00 in0.0 mm
01:15 PM 75.6°F24.2°C 60.3°F15.7°C 59% 6.9 mph W11.1 kmh W 11.5 mph18.5 kmh 30.11 in1019.6 mb - 0.00 in0.0 mm 0.00 in0.0 mm
01:10 PM 75.5°F24.2°C 60.2°F15.7°C 59% 6.9 mph WSW11.1 kmh WSW 18.4 mph29.6 kmh 30.11 in1019.6 mb - 0.00 in0.0 mm 0.00 in0.0 mm
01:00 PM 75.3°F24.1°C 60.0°F15.6°C 59% 5.8 mph W9.3 kmh W 8.1 mph13.0 kmh 30.11 in1019.6 mb - 0.00 in0.0 mm 0.00 in0.0 mm
12:55 PM 75.3°F24.1°C 60.0°F15.6°C 59% 4.6 mph SW7.4 kmh SW 5.8 mph9.3 kmh 30.11 in1019.6 mb - 0.00 in0.0 mm 0.00 in0.0 mm
12:50 PM 75.1°F23.9°C 59.8°F15.4°C 59% 6.9 mph SW11.1 kmh SW 10.4 mph16.7 kmh 30.12 in1020.0 mb - 0.00 in0.0 mm 0.00 in0.0 mm
12:45 PM 74.7°F23.7°C 59.9°F15.5°C 60% 6.9 mph SW11.1 kmh SW 11.5 mph18.5 kmh 30.12 in1020.0 mb - 0.00 in0.0 mm 0.00 in0.0 mm
12:40 PM 74.6°F23.7°C 60.3°F15.7°C 61% 6.9 mph WSW11.1 kmh WSW 9.2 mph14.8 kmh 30.12 in1020.0 mb - 0.00 in0.0 mm 0.00 in0.0 mm
12:35 PM 74.5°F23.6°C 60.2°F15.7°C 61% 5.8 mph SW9.3 kmh SW 10.4 mph16.7 kmh 30.12 in1020.0 mb - 0.00 in0.0 mm 0.00 in0.0 mm
12:30 PM 74.4°F23.6°C 60.1°F15.6°C 61% 6.9 mph SSW11.1 kmh SSW 12.7 mph20.4 kmh 30.12 in1020.0 mb - 0.00 in0.0 mm 0.00 in0.0 mm
12:25 PM 73.9°F23.3°C 60.5°F15.8°C 63% 5.8 mph SSW9.3 kmh SSW 9.2 mph14.8 kmh 30.13 in1020.3 mb - 0.00 in0.0 mm 0.00 in0.0 mm
12:20 PM 73.6°F23.1°C 59.8°F15.4°C 62% 4.6 mph SSW7.4 kmh SSW 8.1 mph13.0 kmh 30.13 in1020.3 mb - 0.00 in0.0 mm 0.00 in0.0 mm
12:15 PM 73.6°F23.1°C 59.8°F15.4°C 62% 5.8 mph WSW9.3 kmh WSW 11.5 mph18.5 kmh 30.13 in1020.3 mb - 0.00 in0.0 mm 0.00 in0.0 mm
12:10 PM 73.4°F23.0°C 60.1°F15.6°C 63% 4.6 mph WSW7.4 kmh WSW 8.1 mph13.0 kmh 30.13 in1020.3 mb - 0.00 in0.0 mm 0.00 in0.0 mm
12:00 PM 73.3°F22.9°C 59.9°F15.5°C 63% 6.9 mph SW11.1 kmh SW 9.2 mph14.8 kmh 30.14 in1020.7 mb - 0.00 in0.0 mm 0.00 in0.0 mm
11:55 AM 73.2°F22.9°C 60.3°F15.7°C 64% 4.6 mph WSW7.4 kmh WSW 6.9 mph11.1 kmh 30.14 in1020.7 mb - 0.00 in0.0 mm 0.00 in0.0 mm
11:50 AM 73.4°F23.0°C 60.0°F15.6°C 63% 8.1 mph WSW13.0 kmh WSW 13.8 mph22.2 kmh 30.14 in1020.7 mb - 0.00 in0.0 mm 0.00 in0.0 mm
11:45 AM 73.5°F23.1°C 60.6°F15.9°C 64% 3.5 mph WSW5.6 kmh WSW 9.2 mph14.8 kmh 30.14 in1020.7 mb - 0.00 in0.0 mm 0.00 in0.0 mm
11:40 AM 73.4°F23.0°C 59.6°F15.3°C 62% 4.6 mph SW7.4 kmh SW 6.9 mph11.1 kmh 30.14 in1020.7 mb - 0.00 in0.0 mm 0.00 in0.0 mm
11:35 AM 73.4°F23.0°C 59.6°F15.3°C 62% 4.6 mph WSW7.4 kmh WSW 13.8 mph22.2 kmh 30.14 in1020.7 mb - 0.00 in0.0 mm 0.00 in0.0 mm
11:30 AM 73.1°F22.8°C 59.8°F15.4°C 63% 5.8 mph SW9.3 kmh SW 10.4 mph16.7 kmh 30.14 in1020.7 mb - 0.00 in0.0 mm 0.00 in0.0 mm
11:25 AM 72.9°F22.7°C 60.0°F15.6°C 64% 4.6 mph WSW7.4 kmh WSW 6.9 mph11.1 kmh 30.14 in1020.7 mb - 0.00 in0.0 mm 0.00 in0.0 mm
11:20 AM 72.5°F22.5°C 61.3°F16.3°C 68% 2.3 mph SW3.7 kmh SW 9.2 mph14.8 kmh 30.14 in1020.7 mb - 0.00 in0.0 mm 0.00 in0.0 mm
11:15 AM 72.3°F22.4°C 61.1°F16.2°C 68% 2.3 mph SW3.7 kmh SW 3.5 mph5.6 kmh 30.15 in1021.0 mb - 0.00 in0.0 mm 0.00 in0.0 mm
11:10 AM 72.4°F22.4°C 60.8°F16.0°C 67% 6.9 mph WSW11.1 kmh WSW 11.5 mph18.5 kmh 30.14 in1020.7 mb - 0.00 in0.0 mm 0.00 in0.0 mm
11:00 AM 72.4°F22.4°C 61.2°F16.2°C 68% 2.3 mph SW3.7 kmh SW 6.9 mph11.1 kmh 30.15 in1021.0 mb - 0.00 in0.0 mm 0.00 in0.0 mm
10:55 AM 72.4°F22.4°C 60.8°F16.0°C 67% 5.8 mph SW9.3 kmh SW 9.2 mph14.8 kmh 30.15 in1021.0 mb - 0.00 in0.0 mm 0.00 in0.0 mm
10:50 AM 72.5°F22.5°C 60.5°F15.8°C 66% 3.5 mph W5.6 kmh W 6.9 mph11.1 kmh 30.15 in1021.0 mb - 0.00 in0.0 mm 0.00 in0.0 mm
10:45 AM 72.8°F22.7°C 60.8°F16.0°C 66% 1.1 mph SW1.8 kmh SW 3.5 mph5.6 kmh 30.15 in1021.0 mb - 0.00 in0.0 mm 0.00 in0.0 mm
10:40 AM 72.9°F22.7°C 60.9°F16.1°C 66% 2.3 mph SW3.7 kmh SW 8.1 mph13.0 kmh 30.15 in1021.0 mb - 0.00 in0.0 mm 0.00 in0.0 mm
10:35 AM 73.1°F22.8°C 61.0°F16.1°C 66% 3.5 mph W5.6 kmh W 11.5 mph18.5 kmh 30.15 in1021.0 mb - 0.00 in0.0 mm 0.00 in0.0 mm
10:30 AM 73.4°F23.0°C 60.9°F16.1°C 65% 4.6 mph SW7.4 kmh SW 5.8 mph9.3 kmh 30.15 in1021.0 mb - 0.00 in0.0 mm 0.00 in0.0 mm
10:25 AM 73.7°F23.2°C 61.2°F16.2°C 65% 3.5 mph WSW5.6 kmh WSW 3.5 mph5.6 kmh 30.15 in1021.0 mb - 0.00 in0.0 mm 0.00 in0.0 mm
10:20 AM 73.5°F23.1°C 61.0°F16.1°C 65% 3.5 mph S5.6 kmh S 5.8 mph9.3 kmh 30.16 in1021.3 mb - 0.00 in0.0 mm 0.00 in0.0 mm
10:15 AM 73.3°F22.9°C 60.8°F16.0°C 65% 3.5 mph SW5.6 kmh SW 4.6 mph7.4 kmh 30.16 in1021.3 mb - 0.00 in0.0 mm 0.00 in0.0 mm
10:10 AM 72.8°F22.7°C 61.2°F16.2°C 67% Calm Calm -- 30.16 in1021.3 mb - 0.00 in0.0 mm 0.00 in0.0 mm
10:00 AM 72.2°F22.3°C 60.6°F15.9°C 67% 5.8 mph SSW9.3 kmh SSW 10.4 mph16.7 kmh 30.16 in1021.3 mb - 0.00 in0.0 mm 0.00 in0.0 mm
09:55 AM 72.3°F22.4°C 61.1°F16.2°C 68% 3.5 mph SW5.6 kmh SW 10.4 mph16.7 kmh 30.16 in1021.3 mb - 0.00 in0.0 mm 0.00 in0.0 mm
09:50 AM 72.1°F22.3°C 61.0°F16.1°C 68% 4.6 mph SW7.4 kmh SW 11.5 mph18.5 kmh 30.16 in1021.3 mb - 0.00 in0.0 mm 0.00 in0.0 mm
09:45 AM 72.1°F22.3°C 61.0°F16.1°C 68% 2.3 mph SW3.7 kmh SW 4.6 mph7.4 kmh 30.16 in1021.3 mb - 0.00 in0.0 mm 0.00 in0.0 mm
09:40 AM 71.8°F22.1°C 61.1°F16.2°C 69% 1.1 mph S1.8 kmh S 5.8 mph9.3 kmh 30.16 in1021.3 mb - 0.00 in0.0 mm 0.00 in0.0 mm
09:35 AM 71.6°F22.0°C 61.3°F16.3°C 70% 4.6 mph S7.4 kmh S 6.9 mph11.1 kmh 30.16 in1021.3 mb - 0.00 in0.0 mm 0.00 in0.0 mm
09:30 AM 71.2°F21.8°C 61.4°F16.3°C 71% 5.8 mph S9.3 kmh S 9.2 mph14.8 kmh 30.17 in1021.7 mb - 0.00 in0.0 mm 0.00 in0.0 mm
09:25 AM 71.1°F21.7°C 60.8°F16.0°C 70% 4.6 mph SW7.4 kmh SW 6.9 mph11.1 kmh 30.16 in1021.3 mb - 0.00 in0.0 mm 0.00 in0.0 mm
09:20 AM 71.2°F21.8°C 60.9°F16.1°C 70% 3.5 mph SW5.6 kmh SW 10.4 mph16.7 kmh 30.17 in1021.7 mb - 0.00 in0.0 mm 0.00 in0.0 mm
09:15 AM 71.5°F21.9°C 61.2°F16.2°C 70% 6.9 mph WSW11.1 kmh WSW 11.5 mph18.5 kmh 30.17 in1021.7 mb - 0.00 in0.0 mm 0.00 in0.0 mm
09:10 AM 71.5°F21.9°C 61.2°F16.2°C 70% 3.5 mph SSW5.6 kmh SSW 4.6 mph7.4 kmh 30.17 in1021.7 mb - 0.00 in0.0 mm 0.00 in0.0 mm
09:00 AM 71.7°F22.1°C 61.4°F16.3°C 70% Calm Calm 2.3 mph3.7 kmh 30.17 in1021.7 mb - 0.00 in0.0 mm 0.00 in0.0 mm
08:55 AM 71.6°F22.0°C 60.8°F16.0°C 69% 2.3 mph SSE3.7 kmh SSE 3.5 mph5.6 kmh 30.17 in1021.7 mb - 0.00 in0.0 mm 0.00 in0.0 mm
08:50 AM 71.4°F21.9°C 61.1°F16.2°C 70% 2.3 mph S3.7 kmh S 5.8 mph9.3 kmh 30.17 in1021.7 mb - 0.00 in0.0 mm 0.00 in0.0 mm
08:45 AM 71.3°F21.8°C 60.6°F15.9°C 69% 3.5 mph S5.6 kmh S 4.6 mph7.4 kmh 30.17 in1021.7 mb - 0.00 in0.0 mm 0.00 in0.0 mm
08:40 AM 71.3°F21.8°C 61.0°F16.1°C 70% 4.6 mph SSW7.4 kmh SSW 8.1 mph13.0 kmh 30.17 in1021.7 mb - 0.00 in0.0 mm 0.00 in0.0 mm
08:35 AM 71.2°F21.8°C 61.3°F16.3°C 71% 3.5 mph S5.6 kmh S 6.9 mph11.1 kmh 30.17 in1021.7 mb - 0.00 in0.0 mm 0.00 in0.0 mm
08:30 AM 70.9°F21.6°C 61.4°F16.3°C 72% 2.3 mph S3.7 kmh S 3.5 mph5.6 kmh 30.17 in1021.7 mb - 0.00 in0.0 mm 0.00 in0.0 mm
08:25 AM 70.6°F21.4°C 61.5°F16.4°C 73% 1.1 mph SW1.8 kmh SW 5.8 mph9.3 kmh 30.17 in1021.7 mb - 0.00 in0.0 mm 0.00 in0.0 mm
08:20 AM 70.4°F21.3°C 61.7°F16.5°C 74% 2.3 mph WSW3.7 kmh WSW 4.6 mph7.4 kmh 30.17 in1021.7 mb - 0.00 in0.0 mm 0.00 in0.0 mm
08:15 AM 70.0°F21.1°C 61.3°F16.3°C 74% 3.5 mph SW5.6 kmh SW 9.2 mph14.8 kmh 30.17 in1021.7 mb - 0.00 in0.0 mm 0.00 in0.0 mm
08:10 AM 70.1°F21.2°C 61.0°F16.1°C 73% 4.6 mph SW7.4 kmh SW 11.5 mph18.5 kmh 30.17 in1021.7 mb - 0.00 in0.0 mm 0.00 in0.0 mm
08:00 AM 71.0°F21.7°C 61.5°F16.4°C 72% 4.6 mph WSW7.4 kmh WSW 5.8 mph9.3 kmh 30.17 in1021.7 mb - 0.00 in0.0 mm 0.00 in0.0 mm
07:55 AM 70.9°F21.6°C 61.0°F16.1°C 71% 3.5 mph SSW5.6 kmh SSW 6.9 mph11.1 kmh 30.17 in1021.7 mb - 0.00 in0.0 mm 0.00 in0.0 mm
07:50 AM 70.8°F21.6°C 60.9°F16.1°C 71% 3.5 mph S5.6 kmh S 6.9 mph11.1 kmh 30.17 in1021.7 mb - 0.00 in0.0 mm 0.00 in0.0 mm
07:45 AM 70.8°F21.6°C 60.9°F16.1°C 71% 5.8 mph S9.3 kmh S 8.1 mph13.0 kmh 30.17 in1021.7 mb - 0.00 in0.0 mm 0.00 in0.0 mm
07:40 AM 70.5°F21.4°C 61.8°F16.6°C 74% 1.1 mph S1.8 kmh S 3.5 mph5.6 kmh 30.17 in1021.7 mb - 0.00 in0.0 mm 0.00 in0.0 mm
07:35 AM 70.1°F21.2°C 61.5°F16.4°C 74% 2.3 mph S3.7 kmh S 3.5 mph5.6 kmh 30.17 in1021.7 mb - 0.00 in0.0 mm 0.00 in0.0 mm
07:30 AM 69.9°F21.1°C 61.6°F16.4°C 75% 3.5 mph S5.6 kmh S 5.8 mph9.3 kmh 30.17 in1021.7 mb - 0.00 in0.0 mm 0.00 in0.0 mm
07:25 AM 69.8°F21.0°C 61.1°F16.2°C 74% 4.6 mph S7.4 kmh S 8.1 mph13.0 kmh 30.17 in1021.7 mb - 0.00 in0.0 mm 0.00 in0.0 mm
07:20 AM 69.8°F21.0°C 61.1°F16.2°C 74% 2.3 mph S3.7 kmh S 3.5 mph5.6 kmh 30.18 in1022.0 mb - 0.00 in0.0 mm 0.00 in0.0 mm
07:15 AM 69.8°F21.0°C 61.1°F16.2°C 74% 3.5 mph SW5.6 kmh SW 5.8 mph9.3 kmh 30.18 in1022.0 mb - 0.00 in0.0 mm 0.00 in0.0 mm
07:10 AM 69.7°F20.9°C 61.0°F16.1°C 74% 1.1 mph SW1.8 kmh SW 2.3 mph3.7 kmh 30.18 in1022.0 mb - 0.00 in0.0 mm 0.00 in0.0 mm
07:00 AM 69.2°F20.7°C 61.3°F16.3°C 76% 1.1 mph S1.8 kmh S 2.3 mph3.7 kmh 30.18 in1022.0 mb - 0.00 in0.0 mm 0.00 in0.0 mm
06:55 AM 68.6°F20.3°C 61.1°F16.2°C 77% 1.1 mph S1.8 kmh S 5.8 mph9.3 kmh 30.18 in1022.0 mb - 0.00 in0.0 mm 0.00 in0.0 mm
06:50 AM 68.2°F20.1°C 61.1°F16.2°C 78% 1.1 mph S1.8 kmh S 3.5 mph5.6 kmh 30.18 in1022.0 mb - 0.00 in0.0 mm 0.00 in0.0 mm
06:45 AM 67.8°F19.9°C 61.0°F16.1°C 79% 2.3 mph S3.7 kmh S 3.5 mph5.6 kmh 30.18 in1022.0 mb - 0.00 in0.0 mm 0.00 in0.0 mm
06:40 AM 67.7°F19.8°C 61.3°F16.3°C 80% 1.1 mph S1.8 kmh S 3.5 mph5.6 kmh 30.18 in1022.0 mb - 0.00 in0.0 mm 0.00 in0.0 mm
06:35 AM 67.4°F19.7°C 61.0°F16.1°C 80% 1.1 mph S1.8 kmh S 3.5 mph5.6 kmh 30.18 in1022.0 mb - 0.00 in0.0 mm 0.00 in0.0 mm
06:30 AM 67.1°F19.5°C 61.1°F16.2°C 81% 1.1 mph S1.8 kmh S 3.5 mph5.6 kmh 30.18 in1022.0 mb - 0.00 in0.0 mm 0.00 in0.0 mm
06:25 AM 66.8°F19.3°C 61.2°F16.2°C 82% 1.1 mph SSE1.8 kmh SSE 2.3 mph3.7 kmh 30.18 in1022.0 mb - 0.00 in0.0 mm 0.00 in0.0 mm
06:20 AM 66.5°F19.2°C 60.8°F16.0°C 82% 1.1 mph SSE1.8 kmh SSE 2.3 mph3.7 kmh 30.18 in1022.0 mb - 0.00 in0.0 mm 0.00 in0.0 mm
06:15 AM 66.2°F19.0°C 60.9°F16.1°C 83% Calm Calm 2.3 mph3.7 kmh 30.18 in1022.0 mb - 0.00 in0.0 mm 0.00 in0.0 mm
06:10 AM 66.0°F18.9°C 60.7°F15.9°C 83% 1.1 mph S1.8 kmh S 1.1 mph1.8 kmh 30.18 in1022.0 mb - 0.00 in0.0 mm 0.00 in0.0 mm
06:00 AM 65.9°F18.8°C 60.6°F15.9°C 83% 2.3 mph SSW3.7 kmh SSW 4.6 mph7.4 kmh 30.18 in1022.0 mb - 0.00 in0.0 mm 0.00 in0.0 mm
05:55 AM 65.7°F18.7°C 60.4°F15.8°C 83% Calm Calm 3.5 mph5.6 kmh 30.18 in1022.0 mb - 0.00 in0.0 mm 0.00 in0.0 mm
05:50 AM 65.6°F18.7°C 60.6°F15.9°C 84% Calm Calm 2.3 mph3.7 kmh 30.18 in1022.0 mb - 0.00 in0.0 mm 0.00 in0.0 mm
05:45 AM 65.5°F18.6°C 60.6°F15.9°C 84% Calm Calm 2.3 mph3.7 kmh 30.18 in1022.0 mb - 0.00 in0.0 mm 0.00 in0.0 mm
05:40 AM 65.4°F18.6°C 60.5°F15.8°C 84% Calm Calm 1.1 mph1.8 kmh 30.18 in1022.0 mb - 0.00 in0.0 mm 0.00 in0.0 mm
05:35 AM 65.4°F18.6°C 60.4°F15.8°C 84% Calm Calm -- 30.18 in1022.0 mb - 0.00 in0.0 mm 0.00 in0.0 mm
05:30 AM 65.3°F18.5°C 60.3°F15.7°C 84% Calm Calm 1.1 mph1.8 kmh 30.18 in1022.0 mb - 0.00 in0.0 mm 0.00 in0.0 mm
05:25 AM 65.3°F18.5°C 60.3°F15.7°C 84% Calm Calm 2.3 mph3.7 kmh 30.18 in1022.0 mb - 0.00 in0.0 mm 0.00 in0.0 mm
05:20 AM 65.3°F18.5°C 60.3°F15.7°C 84% Calm Calm 2.3 mph3.7 kmh 30.18 in1022.0 mb - 0.00 in0.0 mm 0.00 in0.0 mm
05:15 AM 65.2°F18.4°C 60.2°F15.7°C 84% Calm Calm 3.5 mph5.6 kmh 30.18 in1022.0 mb - 0.00 in0.0 mm 0.00 in0.0 mm
05:10 AM 65.2°F18.4°C 60.2°F15.7°C 84% Calm Calm -- 30.18 in1022.0 mb - 0.00 in0.0 mm 0.00 in0.0 mm
05:00 AM 65.1°F18.4°C 60.1°F15.6°C 84% 1.1 mph SW1.8 kmh SW 3.5 mph5.6 kmh 30.18 in1022.0 mb - 0.00 in0.0 mm 0.00 in0.0 mm
04:55 AM 65.1°F18.4°C 60.1°F15.6°C 84% Calm Calm 2.3 mph3.7 kmh 30.18 in1022.0 mb - 0.00 in0.0 mm 0.00 in0.0 mm
04:50 AM 65.1°F18.4°C 60.1°F15.6°C 84% 1.1 mph SW1.8 kmh SW 2.3 mph3.7 kmh 30.18 in1022.0 mb - 0.00 in0.0 mm 0.00 in0.0 mm
04:45 AM 65.0°F18.3°C 60.0°F15.6°C 84% Calm Calm -- 30.19 in1022.4 mb - 0.00 in0.0 mm 0.00 in0.0 mm
04:40 AM 65.0°F18.3°C 60.0°F15.6°C 84% 2.3 mph SW3.7 kmh SW 3.5 mph5.6 kmh 30.19 in1022.4 mb - 0.00 in0.0 mm 0.00 in0.0 mm
04:35 AM 65.0°F18.3°C 60.0°F15.6°C 84% Calm Calm -- 30.19 in1022.4 mb - 0.00 in0.0 mm 0.00 in0.0 mm
04:30 AM 65.0°F18.3°C 60.0°F15.6°C 84% Calm Calm 2.3 mph3.7 kmh 30.19 in1022.4 mb - 0.00 in0.0 mm 0.00 in0.0 mm
04:25 AM 65.0°F18.3°C 60.0°F15.6°C 84% 2.3 mph SW3.7 kmh SW 3.5 mph5.6 kmh 30.19 in1022.4 mb - 0.00 in0.0 mm 0.00 in0.0 mm
04:20 AM 65.0°F18.3°C 60.0°F15.6°C 84% 1.1 mph SW1.8 kmh SW 2.3 mph3.7 kmh 30.18 in1022.0 mb - 0.00 in0.0 mm 0.00 in0.0 mm
04:15 AM 65.0°F18.3°C 60.0°F15.6°C 84% 1.1 mph SW1.8 kmh SW 2.3 mph3.7 kmh 30.18 in1022.0 mb - 0.00 in0.0 mm 0.00 in0.0 mm
04:10 AM 65.0°F18.3°C 60.4°F15.8°C 85% 2.3 mph SW3.7 kmh SW 3.5 mph5.6 kmh 30.19 in1022.4 mb - 0.00 in0.0 mm 0.00 in0.0 mm
04:00 AM 65.0°F18.3°C 60.4°F15.8°C 85% 1.1 mph SW1.8 kmh SW 4.6 mph7.4 kmh 30.19 in1022.4 mb - 0.00 in0.0 mm 0.00 in0.0 mm
03:55 AM 65.0°F18.3°C 60.4°F15.8°C 85% 1.1 mph SW1.8 kmh SW 2.3 mph3.7 kmh 30.19 in1022.4 mb - 0.00 in0.0 mm 0.00 in0.0 mm
03:50 AM 64.9°F18.3°C 60.3°F15.7°C 85% 2.3 mph SW3.7 kmh SW 3.5 mph5.6 kmh 30.19 in1022.4 mb - 0.00 in0.0 mm 0.00 in0.0 mm
03:45 AM 65.0°F18.3°C 60.3°F15.7°C 85% 1.1 mph SW1.8 kmh SW 3.5 mph5.6 kmh 30.19 in1022.4 mb - 0.00 in0.0 mm 0.00 in0.0 mm
03:40 AM 65.0°F18.3°C 60.0°F15.6°C 84% 1.1 mph SW1.8 kmh SW 3.5 mph5.6 kmh 30.19 in1022.4 mb - 0.00 in0.0 mm 0.00 in0.0 mm
03:35 AM 65.0°F18.3°C 60.0°F15.6°C 84% 1.1 mph SW1.8 kmh SW 2.3 mph3.7 kmh 30.19 in1022.4 mb - 0.00 in0.0 mm 0.00 in0.0 mm
03:30 AM 65.0°F18.3°C 60.0°F15.6°C 84% Calm Calm 1.1 mph1.8 kmh 30.19 in1022.4 mb - 0.00 in0.0 mm 0.00 in0.0 mm
03:25 AM 65.0°F18.3°C 60.0°F15.6°C 84% 2.3 mph SW3.7 kmh SW 3.5 mph5.6 kmh 30.19 in1022.4 mb - 0.00 in0.0 mm 0.00 in0.0 mm
03:20 AM 65.0°F18.3°C 60.4°F15.8°C 85% 1.1 mph SW1.8 kmh SW 2.3 mph3.7 kmh 30.19 in1022.4 mb - 0.00 in0.0 mm 0.00 in0.0 mm
03:15 AM 65.0°F18.3°C 60.4°F15.8°C 85% 1.1 mph SW1.8 kmh SW 4.6 mph7.4 kmh 30.19 in1022.4 mb - 0.00 in0.0 mm 0.00 in0.0 mm
03:10 AM 65.0°F18.3°C 60.4°F15.8°C 85% 2.3 mph SW3.7 kmh SW 3.5 mph5.6 kmh 30.19 in1022.4 mb - 0.00 in0.0 mm 0.00 in0.0 mm
03:00 AM 65.0°F18.3°C 60.4°F15.8°C 85% 1.1 mph SW1.8 kmh SW 3.5 mph5.6 kmh 30.19 in1022.4 mb - 0.00 in0.0 mm 0.00 in0.0 mm
02:55 AM 65.0°F18.3°C 60.4°F15.8°C 85% 2.3 mph SW3.7 kmh SW 3.5 mph5.6 kmh 30.19 in1022.4 mb - 0.00 in0.0 mm 0.00 in0.0 mm
02:50 AM 65.0°F18.3°C 60.4°F15.8°C 85% 2.3 mph SW3.7 kmh SW 4.6 mph7.4 kmh 30.19 in1022.4 mb - 0.00 in0.0 mm 0.00 in0.0 mm
02:45 AM 65.0°F18.3°C 60.4°F15.8°C 85% 2.3 mph SW3.7 kmh SW 4.6 mph7.4 kmh 30.19 in1022.4 mb - 0.00 in0.0 mm 0.00 in0.0 mm
02:40 AM 65.0°F18.3°C 60.4°F15.8°C 85% 2.3 mph SW3.7 kmh SW 3.5 mph5.6 kmh 30.20 in1022.7 mb - 0.00 in0.0 mm 0.00 in0.0 mm
02:35 AM 65.0°F18.3°C 60.4°F15.8°C 85% Calm Calm -- 30.19 in1022.4 mb - 0.00 in0.0 mm 0.00 in0.0 mm
02:30 AM 64.9°F18.3°C 60.3°F15.7°C 85% 2.3 mph WSW3.7 kmh WSW 3.5 mph5.6 kmh 30.20 in1022.7 mb - 0.00 in0.0 mm 0.00 in0.0 mm
02:25 AM 64.9°F18.3°C 60.3°F15.7°C 85% 3.5 mph WSW5.6 kmh WSW 3.5 mph5.6 kmh 30.19 in1022.4 mb - 0.00 in0.0 mm 0.00 in0.0 mm
02:20 AM 64.9°F18.3°C 60.3°F15.7°C 85% Calm Calm 1.1 mph1.8 kmh 30.19 in1022.4 mb - 0.00 in0.0 mm 0.00 in0.0 mm
02:15 AM 64.9°F18.3°C 60.3°F15.7°C 85% 1.1 mph WSW1.8 kmh WSW 1.1 mph1.8 kmh 30.19 in1022.4 mb - 0.00 in0.0 mm 0.00 in0.0 mm
02:10 AM 64.9°F18.3°C 60.6°F15.9°C 86% Calm Calm 2.3 mph3.7 kmh 30.19 in1022.4 mb - 0.00 in0.0 mm 0.00 in0.0 mm
02:00 AM 64.9°F18.3°C 60.6°F15.9°C 86% Calm Calm 1.1 mph1.8 kmh 30.19 in1022.4 mb - 0.00 in0.0 mm 0.00 in0.0 mm
01:55 AM 64.9°F18.3°C 60.6°F15.9°C 86% Calm Calm 2.3 mph3.7 kmh 30.19 in1022.4 mb - 0.00 in0.0 mm 0.00 in0.0 mm
01:50 AM 64.9°F18.3°C 60.6°F15.9°C 86% 1.1 mph WSW1.8 kmh WSW 1.1 mph1.8 kmh 30.20 in1022.7 mb - 0.00 in0.0 mm 0.00 in0.0 mm
01:45 AM 64.9°F18.3°C 60.6°F15.9°C 86% 2.3 mph WSW3.7 kmh WSW 3.5 mph5.6 kmh 30.20 in1022.7 mb - 0.00 in0.0 mm 0.00 in0.0 mm
01:40 AM 64.9°F18.3°C 60.6°F15.9°C 86% 2.3 mph WSW3.7 kmh WSW 3.5 mph5.6 kmh 30.20 in1022.7 mb - 0.00 in0.0 mm 0.00 in0.0 mm
01:35 AM 64.9°F18.3°C 60.6°F15.9°C 86% Calm Calm 2.3 mph3.7 kmh 30.20 in1022.7 mb - 0.00 in0.0 mm 0.00 in0.0 mm
01:30 AM 65.0°F18.3°C 60.7°F15.9°C 86% 3.5 mph WSW5.6 kmh WSW 3.5 mph5.6 kmh 30.20 in1022.7 mb - 0.00 in0.0 mm 0.00 in0.0 mm
01:25 AM 65.0°F18.3°C 60.7°F15.9°C 86% 1.1 mph WSW1.8 kmh WSW 4.6 mph7.4 kmh 30.20 in1022.7 mb - 0.00 in0.0 mm 0.00 in0.0 mm
01:20 AM 65.0°F18.3°C 60.7°F15.9°C 86% 1.1 mph WSW1.8 kmh WSW 3.5 mph5.6 kmh 30.20 in1022.7 mb - 0.00 in0.0 mm 0.00 in0.0 mm
01:15 AM 65.0°F18.3°C 60.7°F15.9°C 86% 3.5 mph WSW5.6 kmh WSW 3.5 mph5.6 kmh 30.20 in1022.7 mb - 0.00 in0.0 mm 0.00 in0.0 mm
01:10 AM 65.0°F18.3°C 60.7°F15.9°C 86% 2.3 mph WSW3.7 kmh WSW 3.5 mph5.6 kmh 30.20 in1022.7 mb - 0.00 in0.0 mm 0.00 in0.0 mm
01:00 AM 65.0°F18.3°C 60.7°F15.9°C 86% 3.5 mph SW5.6 kmh SW 4.6 mph7.4 kmh 30.20 in1022.7 mb - 0.00 in0.0 mm 0.00 in0.0 mm
12:55 AM 65.0°F18.3°C 60.7°F15.9°C 86% 2.3 mph WSW3.7 kmh WSW 3.5 mph5.6 kmh 30.20 in1022.7 mb - 0.00 in0.0 mm 0.00 in0.0 mm
12:50 AM 65.0°F18.3°C 60.4°F15.8°C 85% 2.3 mph WSW3.7 kmh WSW 3.5 mph5.6 kmh 30.20 in1022.7 mb - 0.00 in0.0 mm 0.00 in0.0 mm
12:45 AM 65.1°F18.4°C 60.5°F15.8°C 85% 2.3 mph WSW3.7 kmh WSW 3.5 mph5.6 kmh 30.20 in1022.7 mb - 0.00 in0.0 mm 0.00 in0.0 mm
12:40 AM 65.1°F18.4°C 60.5°F15.8°C 85% Calm Calm 2.3 mph3.7 kmh 30.20 in1022.7 mb - 0.00 in0.0 mm 0.00 in0.0 mm
12:35 AM 65.1°F18.4°C 60.5°F15.8°C 85% 1.1 mph SW1.8 kmh SW 2.3 mph3.7 kmh 30.20 in1022.7 mb - 0.00 in0.0 mm 0.00 in0.0 mm
12:30 AM 65.2°F18.4°C 60.6°F15.9°C 85% 3.5 mph SW5.6 kmh SW 4.6 mph7.4 kmh 30.20 in1022.7 mb - 0.00 in0.0 mm 0.00 in0.0 mm
12:25 AM 65.2°F18.4°C 60.6°F15.9°C 85% 3.5 mph SW5.6 kmh SW 5.8 mph9.3 kmh 30.20 in1022.7 mb - 0.00 in0.0 mm 0.00 in0.0 mm
12:20 AM 65.3°F18.5°C 60.7°F15.9°C 85% 2.3 mph WSW3.7 kmh WSW 4.6 mph7.4 kmh 30.20 in1022.7 mb - 0.00 in0.0 mm 0.00 in0.0 mm
12:15 AM 65.4°F18.6°C 60.4°F15.8°C 84% 3.5 mph WSW5.6 kmh WSW 4.6 mph7.4 kmh 30.20 in1022.7 mb - 0.00 in0.0 mm 0.00 in0.0 mm
12:10 AM 65.5°F18.6°C 60.5°F15.8°C 84% 3.5 mph WSW5.6 kmh WSW 4.6 mph7.4 kmh 30.20 in1022.7 mb - 0.00 in0.0 mm 0.00 in0.0 mm
12:00 AM 65.6°F18.7°C 60.3°F15.7°C 83% 3.5 mph WSW5.6 kmh WSW 4.6 mph7.4 kmh 30.20 in1022.7 mb - 0.00 in0.0 mm 0.00 in0.0 mm